TRA105 EHAM-BIAR
Flight info
| Callsign | TRA105 |
|---|---|
| Flight time | 2h 42m |
| Altitude | 36000 |
| Route | BERGI M90 LONAM DCT NALAN/M079F360 DCT MAMEP |
| Aircraft | B738/M-SDE2E3FGHIRWXY/LB1 |
Departure
| Time | 2026-05-09 14:01 |
|---|---|
| Airport | Amsterdam Airport Schiphol (EHAM) |
Arrival
| Time | 2026-05-09 16:43 |
|---|---|
| Airport | Akureyri International Airport (BIAR) |
| Time | Latitude | Longitude | Altitude | Speed | Heading |
|---|---|---|---|---|---|
| 2026-05-09 13:27 | 52.30999 | 4.77314 | -2 ft | 0 kts | 182° |
| 2026-05-09 13:46 | 52.31018 | 4.77316 | -2 ft | 4 kts | 182° |
| 2026-05-09 13:46 | 52.31039 | 4.77317 | -2 ft | 4 kts | 173° |
| 2026-05-09 13:46 | 52.31064 | 4.77304 | -2 ft | 4 kts | 136° |
| 2026-05-09 13:47 | 52.31074 | 4.77271 | -2 ft | 3 kts | 93° |
| 2026-05-09 13:47 | 52.31076 | 4.77234 | -2 ft | 1 kts | 93° |
| 2026-05-09 13:49 | 52.31075 | 4.77236 | -2 ft | 1 kts | 93° |
| 2026-05-09 13:49 | 52.31074 | 4.77267 | -2 ft | 5 kts | 94° |
| 2026-05-09 13:49 | 52.31070 | 4.77341 | -2 ft | 8 kts | 96° |
| 2026-05-09 13:50 | 52.31075 | 4.77453 | -2 ft | 11 kts | 62° |
| 2026-05-09 13:50 | 52.31142 | 4.77538 | -2 ft | 14 kts | 52° |
| 2026-05-09 13:50 | 52.31221 | 4.77637 | -2 ft | 16 kts | 9° |
| 2026-05-09 13:50 | 52.31335 | 4.77651 | -2 ft | 17 kts | 3° |
| 2026-05-09 13:51 | 52.31457 | 4.77624 | -2 ft | 19 kts | 338° |
| 2026-05-09 13:51 | 52.31555 | 4.77476 | -2 ft | 20 kts | 300° |
| 2026-05-09 13:51 | 52.31573 | 4.77239 | -2 ft | 22 kts | 267° |
| 2026-05-09 13:51 | 52.31564 | 4.76974 | -2 ft | 24 kts | 263° |
| 2026-05-09 13:52 | 52.31555 | 4.76708 | -2 ft | 24 kts | 267° |
| 2026-05-09 13:52 | 52.31546 | 4.76427 | -2 ft | 26 kts | 267° |
| 2026-05-09 13:52 | 52.31535 | 4.76129 | -2 ft | 27 kts | 266° |
| 2026-05-09 13:52 | 52.31525 | 4.75811 | -2 ft | 29 kts | 267° |
| 2026-05-09 13:53 | 52.31511 | 4.75518 | -2 ft | 19 kts | 255° |
| 2026-05-09 13:53 | 52.31423 | 4.75368 | -2 ft | 19 kts | 256° |
| 2026-05-09 13:53 | 52.31416 | 4.75159 | -2 ft | 18 kts | 267° |
| 2026-05-09 13:53 | 52.31409 | 4.74956 | -2 ft | 18 kts | 267° |
| 2026-05-09 13:54 | 52.31403 | 4.74749 | -2 ft | 19 kts | 267° |
| 2026-05-09 13:54 | 52.31397 | 4.74527 | -2 ft | 20 kts | 268° |
| 2026-05-09 13:54 | 52.31398 | 4.74315 | -2 ft | 11 kts | 300° |
| 2026-05-09 13:54 | 52.31466 | 4.74290 | -2 ft | 10 kts | 4° |
| 2026-05-09 13:55 | 52.31540 | 4.74299 | -2 ft | 11 kts | 4° |
| 2026-05-09 13:55 | 52.31619 | 4.74309 | -2 ft | 12 kts | 5° |
| 2026-05-09 13:55 | 52.31704 | 4.74315 | -2 ft | 13 kts | 1° |
| 2026-05-09 13:55 | 52.31809 | 4.74322 | -2 ft | 18 kts | 3° |
| 2026-05-09 13:56 | 52.31951 | 4.74336 | -2 ft | 21 kts | 4° |
| 2026-05-09 13:56 | 52.32029 | 4.74236 | -2 ft | 16 kts | 270° |
| 2026-05-09 13:56 | 52.32036 | 4.74058 | -3 ft | 16 kts | 275° |
| 2026-05-09 13:56 | 52.32043 | 4.73861 | -2 ft | 18 kts | 273° |
| 2026-05-09 13:57 | 52.32052 | 4.73639 | -2 ft | 22 kts | 273° |
| 2026-05-09 13:57 | 52.32084 | 4.73383 | -2 ft | 25 kts | 307° |
| 2026-05-09 13:57 | 52.32214 | 4.73180 | -2 ft | 27 kts | 318° |
| 2026-05-09 13:57 | 52.32362 | 4.72973 | -2 ft | 29 kts | 319° |
| 2026-05-09 13:58 | 52.32520 | 4.72750 | -2 ft | 31 kts | 319° |
| 2026-05-09 13:58 | 52.32679 | 4.72514 | -2 ft | 31 kts | 315° |
| 2026-05-09 13:58 | 52.32821 | 4.72254 | -2 ft | 30 kts | 311° |
| 2026-05-09 13:58 | 52.32955 | 4.72010 | -2 ft | 28 kts | 311° |
| 2026-05-09 13:59 | 52.33079 | 4.71778 | -2 ft | 26 kts | 311° |
| 2026-05-09 13:59 | 52.33140 | 4.71533 | -2 ft | 23 kts | 250° |
| 2026-05-09 13:59 | 52.33194 | 4.71310 | -2 ft | 22 kts | 313° |
| 2026-05-09 13:59 | 52.33295 | 4.71120 | -2 ft | 22 kts | 310° |
| 2026-05-09 14:00 | 52.33402 | 4.70954 | -3 ft | 21 kts | 341° |
| 2026-05-09 14:00 | 52.33452 | 4.70948 | -3 ft | 26 kts | 4° |
| 2026-05-09 14:00 | 52.34335 | 4.71027 | -5 ft | 123 kts | 3° |
| 2026-05-09 14:00 | 52.35292 | 4.71121 | 50 ft | 159 kts | 3° |
| 2026-05-09 14:01 | 52.36385 | 4.71215 | 735 ft | 155 kts | 3° |
| 2026-05-09 14:01 | 52.37472 | 4.71310 | 1449 ft | 157 kts | 3° |
| 2026-05-09 14:01 | 52.38600 | 4.71401 | 1905 ft | 169 kts | 5° |
| 2026-05-09 14:01 | 52.39857 | 4.71509 | 2161 ft | 192 kts | 5° |
| 2026-05-09 14:02 | 52.41245 | 4.71634 | 2332 ft | 212 kts | 5° |
| 2026-05-09 14:02 | 52.42786 | 4.71591 | 2465 ft | 234 kts | 346° |
| 2026-05-09 14:02 | 52.44222 | 4.70139 | 2714 ft | 256 kts | 317° |
| 2026-05-09 14:02 | 52.45489 | 4.68033 | 3307 ft | 261 kts | 315° |
| 2026-05-09 14:03 | 52.46779 | 4.65899 | 3954 ft | 265 kts | 315° |
| 2026-05-09 14:03 | 52.48083 | 4.63746 | 4659 ft | 267 kts | 315° |
| 2026-05-09 14:03 | 52.49409 | 4.61569 | 5272 ft | 271 kts | 315° |
| 2026-05-09 14:03 | 52.50747 | 4.59374 | 5951 ft | 273 kts | 315° |
| 2026-05-09 14:04 | 52.52129 | 4.57241 | 6668 ft | 274 kts | 323° |
| 2026-05-09 14:04 | 52.53743 | 4.55553 | 7306 ft | 277 kts | 329° |
| 2026-05-09 14:04 | 52.55440 | 4.54016 | 7975 ft | 279 kts | 330° |
| 2026-05-09 14:04 | 52.57131 | 4.52508 | 8678 ft | 281 kts | 329° |
| 2026-05-09 14:05 | 52.58854 | 4.50951 | 9377 ft | 284 kts | 329° |
| 2026-05-09 14:05 | 52.60594 | 4.49355 | 10065 ft | 288 kts | 329° |
| 2026-05-09 14:05 | 52.62366 | 4.47713 | 10510 ft | 300 kts | 328° |
| 2026-05-09 14:05 | 52.64251 | 4.45948 | 10666 ft | 322 kts | 329° |
| 2026-05-09 14:06 | 52.66264 | 4.44057 | 10825 ft | 343 kts | 328° |
| 2026-05-09 14:06 | 52.68381 | 4.42063 | 11162 ft | 356 kts | 329° |
| 2026-05-09 14:06 | 52.70526 | 4.40040 | 11725 ft | 361 kts | 328° |
| 2026-05-09 14:06 | 52.72716 | 4.37970 | 12385 ft | 364 kts | 328° |
| 2026-05-09 14:07 | 52.74947 | 4.35931 | 13008 ft | 370 kts | 334° |
| 2026-05-09 14:07 | 52.77424 | 4.34662 | 13645 ft | 376 kts | 346° |
| 2026-05-09 14:07 | 52.80006 | 4.33754 | 14264 ft | 381 kts | 347° |
| 2026-05-09 14:07 | 52.82621 | 4.32865 | 14848 ft | 386 kts | 347° |
| 2026-05-09 14:08 | 52.85271 | 4.31944 | 15441 ft | 391 kts | 346° |
| 2026-05-09 14:08 | 52.87946 | 4.30984 | 16045 ft | 395 kts | 346° |
| 2026-05-09 14:08 | 52.90651 | 4.29988 | 16646 ft | 400 kts | 345° |
| 2026-05-09 14:08 | 52.93378 | 4.28968 | 17225 ft | 405 kts | 345° |
| 2026-05-09 14:09 | 52.96141 | 4.27926 | 17832 ft | 409 kts | 345° |
| 2026-05-09 14:09 | 52.98933 | 4.26869 | 18412 ft | 413 kts | 345° |
| 2026-05-09 14:09 | 53.01756 | 4.25801 | 18911 ft | 417 kts | 345° |
| 2026-05-09 14:09 | 53.04601 | 4.24723 | 19458 ft | 420 kts | 345° |
| 2026-05-09 14:10 | 53.10304 | 4.22565 | 20525 ft | 425 kts | 345° |
| 2026-05-09 14:10 | 53.13209 | 4.21470 | 21035 ft | 428 kts | 345° |
| 2026-05-09 14:10 | 53.16131 | 4.20369 | 21536 ft | 432 kts | 345° |
| 2026-05-09 14:11 | 53.18073 | 4.19636 | 21868 ft | 434 kts | 345° |
| 2026-05-09 14:11 | 53.21999 | 4.18152 | 22561 ft | 436 kts | 345° |
| 2026-05-09 14:11 | 53.24010 | 4.17391 | 22896 ft | 438 kts | 345° |
| 2026-05-09 14:11 | 53.27969 | 4.15888 | 23506 ft | 443 kts | 345° |
| 2026-05-09 14:12 | 53.29967 | 4.15129 | 23789 ft | 445 kts | 345° |
| 2026-05-09 14:12 | 53.33001 | 4.13974 | 24164 ft | 448 kts | 345° |
| 2026-05-09 14:12 | 53.36057 | 4.12810 | 24555 ft | 450 kts | 345° |
| 2026-05-09 14:12 | 53.39127 | 4.11639 | 24951 ft | 453 kts | 345° |
| 2026-05-09 14:13 | 53.42211 | 4.10460 | 25238 ft | 458 kts | 345° |
| 2026-05-09 14:14 | 53.64325 | 4.01952 | 27631 ft | 475 kts | 344° |
| 2026-05-09 14:15 | 53.67555 | 4.00701 | 27954 ft | 477 kts | 344° |
| 2026-05-09 14:15 | 53.70812 | 3.99437 | 28290 ft | 479 kts | 343° |
| 2026-05-09 14:15 | 53.74064 | 3.98173 | 28603 ft | 481 kts | 343° |
| 2026-05-09 14:15 | 53.77351 | 3.96894 | 28893 ft | 483 kts | 343° |
| 2026-05-09 14:16 | 53.80640 | 3.95610 | 29180 ft | 486 kts | 343° |
| 2026-05-09 14:16 | 53.83818 | 3.93954 | 29428 ft | 484 kts | 334° |
| 2026-05-09 14:16 | 53.86841 | 3.91473 | 29771 ft | 479 kts | 324° |
| 2026-05-09 14:16 | 53.89634 | 3.88448 | 30251 ft | 475 kts | 322° |
| 2026-05-09 14:17 | 53.92394 | 3.85371 | 30649 ft | 473 kts | 322° |
| 2026-05-09 14:17 | 53.95137 | 3.82295 | 30998 ft | 472 kts | 322° |
| 2026-05-09 14:17 | 53.97879 | 3.79230 | 31364 ft | 470 kts | 322° |
| 2026-05-09 14:17 | 54.00584 | 3.76222 | 31688 ft | 470 kts | 322° |
| 2026-05-09 14:18 | 54.03332 | 3.73180 | 31989 ft | 470 kts | 322° |
| 2026-05-09 14:18 | 54.06080 | 3.70145 | 32295 ft | 470 kts | 322° |
| 2026-05-09 14:18 | 54.08822 | 3.67121 | 32582 ft | 471 kts | 322° |
| 2026-05-09 14:18 | 54.11583 | 3.64072 | 32732 ft | 474 kts | 322° |
| 2026-05-09 14:19 | 54.14363 | 3.61001 | 33020 ft | 474 kts | 322° |
| 2026-05-09 14:19 | 54.17121 | 3.57950 | 33410 ft | 471 kts | 322° |
| 2026-05-09 14:19 | 54.19866 | 3.54911 | 33800 ft | 469 kts | 321° |
| 2026-05-09 14:19 | 54.22567 | 3.51915 | 34154 ft | 467 kts | 321° |
| 2026-05-09 14:20 | 54.25296 | 3.48880 | 34424 ft | 467 kts | 321° |
| 2026-05-09 14:20 | 54.28019 | 3.45846 | 34645 ft | 467 kts | 321° |
| 2026-05-09 14:20 | 54.30741 | 3.42806 | 34880 ft | 467 kts | 321° |
| 2026-05-09 14:21 | 54.36165 | 3.36738 | 35431 ft | 464 kts | 321° |
| 2026-05-09 14:21 | 54.38861 | 3.33715 | 35685 ft | 463 kts | 321° |
| 2026-05-09 14:21 | 54.41558 | 3.30685 | 35906 ft | 463 kts | 321° |
| 2026-05-09 14:21 | 54.44252 | 3.27654 | 36129 ft | 462 kts | 321° |
| 2026-05-09 14:22 | 54.49627 | 3.21588 | 36168 ft | 465 kts | 321° |
| 2026-05-09 14:22 | 54.55034 | 3.15472 | 36172 ft | 464 kts | 321° |
| 2026-05-09 14:23 | 54.60421 | 3.09362 | 36164 ft | 462 kts | 321° |
| 2026-05-09 14:23 | 54.65740 | 3.03306 | 36169 ft | 460 kts | 321° |
| 2026-05-09 14:24 | 54.71079 | 2.97207 | 36167 ft | 459 kts | 321° |
| 2026-05-09 14:24 | 54.76404 | 2.91103 | 36179 ft | 459 kts | 321° |
| 2026-05-09 14:25 | 54.81725 | 2.84985 | 36175 ft | 459 kts | 321° |
| 2026-05-09 14:25 | 54.87018 | 2.78879 | 36177 ft | 459 kts | 321° |
| 2026-05-09 14:26 | 54.92341 | 2.72720 | 36174 ft | 460 kts | 321° |
| 2026-05-09 14:26 | 54.97672 | 2.66531 | 36184 ft | 461 kts | 320° |
| 2026-05-09 14:27 | 55.03021 | 2.60302 | 36188 ft | 462 kts | 320° |
| 2026-05-09 14:27 | 55.08347 | 2.54079 | 36181 ft | 463 kts | 320° |
| 2026-05-09 14:28 | 55.13715 | 2.47787 | 36183 ft | 464 kts | 320° |
| 2026-05-09 14:28 | 55.19085 | 2.41472 | 36182 ft | 464 kts | 320° |
| 2026-05-09 14:29 | 55.24449 | 2.35144 | 36214 ft | 464 kts | 320° |
| 2026-05-09 14:29 | 55.29770 | 2.28846 | 36191 ft | 464 kts | 320° |
| 2026-05-09 14:30 | 55.35128 | 2.22482 | 36188 ft | 463 kts | 320° |
| 2026-05-09 14:30 | 55.40431 | 2.16163 | 36195 ft | 462 kts | 319° |
| 2026-05-09 14:31 | 55.45767 | 2.09781 | 36194 ft | 462 kts | 319° |
| 2026-05-09 14:31 | 55.51085 | 2.03401 | 36212 ft | 461 kts | 319° |
| 2026-05-09 14:32 | 55.56389 | 1.97017 | 36208 ft | 461 kts | 319° |
| 2026-05-09 14:32 | 55.61656 | 1.90656 | 36203 ft | 461 kts | 319° |
| 2026-05-09 14:33 | 55.66952 | 1.84239 | 36207 ft | 461 kts | 319° |
| 2026-05-09 14:33 | 55.72250 | 1.77799 | 36214 ft | 461 kts | 319° |
| 2026-05-09 14:34 | 55.77507 | 1.71387 | 36253 ft | 460 kts | 318° |
| 2026-05-09 14:34 | 55.82803 | 1.64904 | 36227 ft | 461 kts | 318° |
| 2026-05-09 14:35 | 55.88090 | 1.58411 | 36223 ft | 462 kts | 318° |
| 2026-05-09 14:35 | 55.93342 | 1.51942 | 36230 ft | 461 kts | 318° |
| 2026-05-09 14:36 | 55.98623 | 1.45413 | 36239 ft | 461 kts | 318° |
| 2026-05-09 14:36 | 56.03895 | 1.38874 | 36234 ft | 460 kts | 318° |
| 2026-05-09 14:37 | 56.09161 | 1.32320 | 36242 ft | 460 kts | 318° |
| 2026-05-09 14:37 | 56.14407 | 1.25768 | 36250 ft | 460 kts | 318° |
| 2026-05-09 14:38 | 56.19655 | 1.19191 | 36250 ft | 460 kts | 318° |
| 2026-05-09 14:38 | 56.24864 | 1.12641 | 36272 ft | 460 kts | 318° |
| 2026-05-09 14:39 | 56.30114 | 1.06016 | 36272 ft | 460 kts | 317° |
| 2026-05-09 14:39 | 56.35364 | 0.99370 | 36262 ft | 460 kts | 317° |
| 2026-05-09 14:40 | 56.40589 | 0.92733 | 36261 ft | 461 kts | 317° |
| 2026-05-09 14:40 | 56.45832 | 0.86048 | 36272 ft | 462 kts | 317° |
| 2026-05-09 14:41 | 56.51077 | 0.79340 | 36259 ft | 461 kts | 317° |
| 2026-05-09 14:41 | 56.56314 | 0.72620 | 36262 ft | 460 kts | 317° |
| 2026-05-09 14:42 | 56.61533 | 0.65898 | 36271 ft | 459 kts | 317° |
| 2026-05-09 14:42 | 56.66699 | 0.59223 | 36270 ft | 458 kts | 317° |
| 2026-05-09 14:43 | 56.71885 | 0.52497 | 36278 ft | 457 kts | 317° |
| 2026-05-09 14:43 | 56.77063 | 0.45758 | 36279 ft | 456 kts | 317° |
| 2026-05-09 14:44 | 56.82197 | 0.39053 | 36278 ft | 455 kts | 317° |
| 2026-05-09 14:44 | 56.87342 | 0.32310 | 36281 ft | 455 kts | 317° |
| 2026-05-09 14:45 | 56.92494 | 0.25534 | 36286 ft | 454 kts | 317° |
| 2026-05-09 14:45 | 56.97597 | 0.18800 | 36282 ft | 454 kts | 317° |
| 2026-05-09 14:46 | 57.02737 | 0.11994 | 36286 ft | 454 kts | 317° |
| 2026-05-09 14:46 | 57.07860 | 0.05188 | 36288 ft | 455 kts | 317° |
| 2026-05-09 14:47 | 57.12956 | -0.01609 | 36345 ft | 455 kts | 317° |
| 2026-05-09 14:47 | 57.18098 | -0.08490 | 36299 ft | 456 kts | 317° |
| 2026-05-09 14:48 | 57.23228 | -0.15376 | 36294 ft | 455 kts | 317° |
| 2026-05-09 14:48 | 57.28354 | -0.22281 | 36291 ft | 455 kts | 317° |
| 2026-05-09 14:49 | 57.33434 | -0.29149 | 36289 ft | 454 kts | 317° |
| 2026-05-09 14:49 | 57.38534 | -0.36069 | 36329 ft | 453 kts | 317° |
| 2026-05-09 14:50 | 57.43593 | -0.42959 | 36300 ft | 453 kts | 317° |
| 2026-05-09 14:50 | 57.48673 | -0.49901 | 36293 ft | 452 kts | 317° |
| 2026-05-09 14:51 | 57.53727 | -0.56831 | 36295 ft | 451 kts | 317° |
| 2026-05-09 14:51 | 57.58737 | -0.63725 | 36296 ft | 450 kts | 317° |
| 2026-05-09 14:52 | 57.63790 | -0.70704 | 36296 ft | 449 kts | 317° |
| 2026-05-09 14:52 | 57.68776 | -0.77617 | 36310 ft | 449 kts | 317° |
| 2026-05-09 14:53 | 57.73786 | -0.84584 | 36306 ft | 449 kts | 317° |
| 2026-05-09 14:53 | 57.78798 | -0.91578 | 36304 ft | 448 kts | 317° |
| 2026-05-09 14:54 | 57.83808 | -0.98595 | 36310 ft | 448 kts | 317° |
| 2026-05-09 14:54 | 57.88807 | -1.05622 | 36306 ft | 448 kts | 317° |
| 2026-05-09 14:55 | 57.93769 | -1.12625 | 36328 ft | 449 kts | 317° |
| 2026-05-09 14:55 | 57.98765 | -1.19699 | 36316 ft | 449 kts | 317° |
| 2026-05-09 14:56 | 58.03766 | -1.26803 | 36316 ft | 450 kts | 318° |
| 2026-05-09 14:56 | 58.08769 | -1.33937 | 36307 ft | 450 kts | 318° |
| 2026-05-09 14:57 | 58.13732 | -1.41038 | 36307 ft | 450 kts | 318° |
| 2026-05-09 14:57 | 58.18726 | -1.48209 | 36307 ft | 450 kts | 317° |
| 2026-05-09 14:58 | 58.23714 | -1.55400 | 36316 ft | 450 kts | 318° |
| 2026-05-09 14:58 | 58.27888 | -1.61435 | 36309 ft | 450 kts | 318° |
| 2026-05-09 14:59 | 58.32841 | -1.68621 | 36310 ft | 450 kts | 318° |
| 2026-05-09 14:59 | 58.37813 | -1.75862 | 36304 ft | 449 kts | 318° |
| 2026-05-09 15:00 | 58.42777 | -1.83106 | 36315 ft | 449 kts | 318° |
| 2026-05-09 15:00 | 58.47732 | -1.90377 | 36342 ft | 448 kts | 319° |
| 2026-05-09 15:01 | 58.55114 | -2.01263 | 36313 ft | 448 kts | 319° |
| 2026-05-09 15:02 | 58.60047 | -2.08567 | 36307 ft | 448 kts | 319° |
| 2026-05-09 15:02 | 58.64984 | -2.15901 | 36307 ft | 447 kts | 319° |
| 2026-05-09 15:03 | 58.69900 | -2.23232 | 36308 ft | 447 kts | 319° |
| 2026-05-09 15:03 | 58.74774 | -2.30526 | 36307 ft | 446 kts | 319° |
| 2026-05-09 15:04 | 58.79670 | -2.37881 | 36304 ft | 446 kts | 319° |
| 2026-05-09 15:06 | 58.99236 | -2.67542 | 36311 ft | 446 kts | 319° |
| 2026-05-09 15:06 | 59.04078 | -2.74953 | 36315 ft | 446 kts | 319° |
| 2026-05-09 15:07 | 59.08948 | -2.82434 | 36317 ft | 446 kts | 319° |
| 2026-05-09 15:07 | 59.13824 | -2.89951 | 36310 ft | 446 kts | 319° |
| 2026-05-09 15:08 | 59.18690 | -2.97479 | 36307 ft | 446 kts | 319° |
| 2026-05-09 15:08 | 59.25945 | -3.08758 | 36314 ft | 445 kts | 319° |
| 2026-05-09 15:10 | 59.45256 | -3.39088 | 36312 ft | 443 kts | 319° |
| 2026-05-09 15:11 | 59.50056 | -3.46700 | 36303 ft | 443 kts | 319° |
| 2026-05-09 15:11 | 59.54848 | -3.54326 | 36303 ft | 442 kts | 319° |
| 2026-05-09 15:12 | 59.59625 | -3.61958 | 36311 ft | 442 kts | 319° |
| 2026-05-09 15:12 | 59.64368 | -3.69563 | 36301 ft | 441 kts | 319° |
| 2026-05-09 15:13 | 59.69137 | -3.77239 | 36303 ft | 441 kts | 319° |
| 2026-05-09 15:13 | 59.73893 | -3.84924 | 36302 ft | 441 kts | 319° |
| 2026-05-09 15:14 | 59.78639 | -3.92621 | 36298 ft | 441 kts | 319° |
| 2026-05-09 15:14 | 59.83354 | -4.00289 | 36317 ft | 440 kts | 320° |
| 2026-05-09 15:15 | 59.88091 | -4.08035 | 36301 ft | 440 kts | 320° |
| 2026-05-09 15:15 | 59.92813 | -4.15783 | 36302 ft | 439 kts | 319° |
| 2026-05-09 15:16 | 59.97529 | -4.23550 | 36303 ft | 438 kts | 319° |
| 2026-05-09 15:16 | 60.02231 | -4.31322 | 36300 ft | 438 kts | 319° |
| 2026-05-09 15:17 | 60.06889 | -4.39050 | 36301 ft | 437 kts | 319° |
| 2026-05-09 15:17 | 60.11571 | -4.46849 | 36312 ft | 437 kts | 319° |
| 2026-05-09 15:18 | 60.16247 | -4.54667 | 36301 ft | 437 kts | 319° |
| 2026-05-09 15:18 | 60.20922 | -4.62514 | 36299 ft | 437 kts | 319° |
| 2026-05-09 15:19 | 60.25557 | -4.70318 | 36282 ft | 436 kts | 320° |
| 2026-05-09 15:19 | 60.30207 | -4.78179 | 36290 ft | 435 kts | 320° |
| 2026-05-09 15:20 | 60.37152 | -4.89989 | 36314 ft | 434 kts | 319° |
| 2026-05-09 15:21 | 60.41772 | -4.97878 | 36304 ft | 434 kts | 320° |
| 2026-05-09 15:21 | 60.46354 | -5.05733 | 36292 ft | 433 kts | 319° |
| 2026-05-09 15:22 | 60.50962 | -5.13661 | 36291 ft | 433 kts | 319° |
| 2026-05-09 15:22 | 60.55529 | -5.21551 | 36293 ft | 433 kts | 319° |
| 2026-05-09 15:23 | 60.60113 | -5.29501 | 36293 ft | 432 kts | 319° |
| 2026-05-09 15:23 | 60.64692 | -5.37472 | 36310 ft | 432 kts | 319° |
| 2026-05-09 15:24 | 60.69234 | -5.45410 | 36275 ft | 433 kts | 320° |
| 2026-05-09 15:24 | 60.73798 | -5.53410 | 36287 ft | 431 kts | 320° |
| 2026-05-09 15:25 | 60.78324 | -5.61385 | 36286 ft | 430 kts | 319° |
| 2026-05-09 15:25 | 60.82861 | -5.69410 | 36290 ft | 429 kts | 319° |
| 2026-05-09 15:26 | 60.89604 | -5.81389 | 36291 ft | 428 kts | 319° |
| 2026-05-09 15:26 | 60.94101 | -5.89417 | 36302 ft | 428 kts | 319° |
| 2026-05-09 15:27 | 60.98592 | -5.97463 | 36289 ft | 427 kts | 319° |
| 2026-05-09 15:27 | 61.02868 | -6.05967 | 36295 ft | 427 kts | 314° |
| 2026-05-09 15:28 | 61.06888 | -6.15006 | 36294 ft | 427 kts | 313° |
| 2026-05-09 15:28 | 61.10881 | -6.24077 | 36290 ft | 427 kts | 313° |
| 2026-05-09 15:29 | 61.14862 | -6.33060 | 36278 ft | 426 kts | 314° |
| 2026-05-09 15:29 | 61.18872 | -6.42091 | 36302 ft | 425 kts | 314° |
| 2026-05-09 15:30 | 61.22857 | -6.51082 | 36291 ft | 425 kts | 314° |
| 2026-05-09 15:30 | 61.26859 | -6.60146 | 36291 ft | 424 kts | 314° |
| 2026-05-09 15:31 | 61.30847 | -6.69214 | 36285 ft | 424 kts | 314° |
| 2026-05-09 15:31 | 61.34806 | -6.78255 | 36291 ft | 424 kts | 313° |
| 2026-05-09 15:32 | 61.38789 | -6.87390 | 36288 ft | 424 kts | 313° |
| 2026-05-09 15:32 | 61.42728 | -6.96459 | 36286 ft | 424 kts | 313° |
| 2026-05-09 15:33 | 61.46683 | -7.05601 | 36279 ft | 424 kts | 313° |
| 2026-05-09 15:33 | 61.50631 | -7.14765 | 36278 ft | 423 kts | 314° |
| 2026-05-09 15:34 | 61.54575 | -7.23959 | 36284 ft | 423 kts | 314° |
| 2026-05-09 15:34 | 61.58476 | -7.33089 | 36286 ft | 422 kts | 313° |
| 2026-05-09 15:35 | 61.62400 | -7.42310 | 36278 ft | 422 kts | 313° |
| 2026-05-09 15:35 | 61.66294 | -7.51497 | 36284 ft | 422 kts | 313° |
| 2026-05-09 15:36 | 61.70194 | -7.60738 | 36288 ft | 422 kts | 313° |
| 2026-05-09 15:36 | 61.74084 | -7.69993 | 36286 ft | 421 kts | 313° |
| 2026-05-09 15:37 | 61.77965 | -7.79265 | 36288 ft | 421 kts | 313° |
| 2026-05-09 15:37 | 61.81838 | -7.88556 | 36287 ft | 420 kts | 313° |
| 2026-05-09 15:38 | 61.85697 | -7.97851 | 36284 ft | 419 kts | 313° |
| 2026-05-09 15:38 | 61.89520 | -8.07097 | 36288 ft | 419 kts | 313° |
| 2026-05-09 15:39 | 61.93359 | -8.16423 | 36293 ft | 419 kts | 313° |
| 2026-05-09 15:39 | 61.97193 | -8.25773 | 36290 ft | 419 kts | 313° |
| 2026-05-09 15:40 | 62.01018 | -8.35141 | 36296 ft | 419 kts | 313° |
| 2026-05-09 15:40 | 62.04807 | -8.44458 | 36294 ft | 419 kts | 313° |
| 2026-05-09 15:41 | 62.08617 | -8.53868 | 36295 ft | 418 kts | 313° |
| 2026-05-09 15:41 | 62.12418 | -8.63295 | 36293 ft | 418 kts | 313° |
| 2026-05-09 15:42 | 62.16210 | -8.72739 | 36259 ft | 418 kts | 313° |
| 2026-05-09 15:42 | 62.19985 | -8.82179 | 36287 ft | 416 kts | 313° |
| 2026-05-09 15:43 | 62.23717 | -8.91554 | 36293 ft | 415 kts | 313° |
| 2026-05-09 15:43 | 62.27464 | -9.01003 | 36295 ft | 415 kts | 313° |
| 2026-05-09 15:44 | 62.31201 | -9.10468 | 36299 ft | 414 kts | 313° |
| 2026-05-09 15:44 | 62.34295 | -9.18332 | 36288 ft | 414 kts | 313° |
| 2026-05-09 15:45 | 62.38007 | -9.27807 | 36289 ft | 413 kts | 313° |
| 2026-05-09 15:45 | 62.41695 | -9.37259 | 36297 ft | 413 kts | 313° |
| 2026-05-09 15:46 | 62.45394 | -9.46779 | 36301 ft | 413 kts | 312° |
| 2026-05-09 15:46 | 62.49081 | -9.56308 | 36296 ft | 413 kts | 312° |
| 2026-05-09 15:47 | 62.52763 | -9.65859 | 36288 ft | 412 kts | 313° |
| 2026-05-09 15:47 | 62.56405 | -9.75356 | 36294 ft | 411 kts | 313° |
| 2026-05-09 15:48 | 62.60051 | -9.84901 | 36301 ft | 411 kts | 313° |
| 2026-05-09 15:48 | 62.63691 | -9.94471 | 36301 ft | 410 kts | 313° |
| 2026-05-09 15:49 | 62.67322 | -10.04055 | 36298 ft | 409 kts | 312° |
| 2026-05-09 15:49 | 62.70938 | -10.13642 | 36301 ft | 409 kts | 312° |
| 2026-05-09 15:50 | 62.74522 | -10.23184 | 36302 ft | 409 kts | 312° |
| 2026-05-09 15:50 | 62.78119 | -10.32802 | 36306 ft | 409 kts | 312° |
| 2026-05-09 15:51 | 62.81708 | -10.42439 | 36298 ft | 409 kts | 312° |
| 2026-05-09 15:51 | 62.85289 | -10.52097 | 36289 ft | 407 kts | 312° |
| 2026-05-09 15:52 | 62.90604 | -10.66509 | 36303 ft | 406 kts | 312° |
| 2026-05-09 15:53 | 62.94141 | -10.76148 | 36300 ft | 405 kts | 312° |
| 2026-05-09 15:53 | 62.97661 | -10.85784 | 36301 ft | 404 kts | 312° |
| 2026-05-09 15:54 | 63.01179 | -10.95456 | 36316 ft | 403 kts | 312° |
| 2026-05-09 15:54 | 63.04653 | -11.05045 | 36300 ft | 402 kts | 312° |
| 2026-05-09 15:55 | 63.08139 | -11.14710 | 36298 ft | 402 kts | 312° |
| 2026-05-09 15:55 | 63.11616 | -11.24393 | 36298 ft | 401 kts | 312° |
| 2026-05-09 15:56 | 63.15084 | -11.34091 | 36302 ft | 401 kts | 311° |
| 2026-05-09 15:56 | 63.18522 | -11.43746 | 36278 ft | 400 kts | 312° |
| 2026-05-09 15:57 | 63.21955 | -11.53430 | 36286 ft | 399 kts | 312° |
| 2026-05-09 15:57 | 63.25376 | -11.63123 | 36301 ft | 398 kts | 312° |
| 2026-05-09 15:58 | 63.28785 | -11.72820 | 36293 ft | 397 kts | 311° |
| 2026-05-09 15:58 | 63.32182 | -11.82526 | 36295 ft | 396 kts | 311° |
| 2026-05-09 15:59 | 63.35545 | -11.92176 | 36301 ft | 396 kts | 311° |
| 2026-05-09 15:59 | 63.38901 | -12.01845 | 36293 ft | 395 kts | 311° |
| 2026-05-09 16:00 | 63.42258 | -12.11561 | 36302 ft | 395 kts | 311° |
| 2026-05-09 16:00 | 63.45609 | -12.21300 | 36305 ft | 395 kts | 311° |
| 2026-05-09 16:01 | 63.48947 | -12.31044 | 36286 ft | 395 kts | 311° |
| 2026-05-09 16:01 | 63.52282 | -12.40822 | 36292 ft | 394 kts | 311° |
| 2026-05-09 16:02 | 63.55580 | -12.50536 | 36294 ft | 393 kts | 311° |
| 2026-05-09 16:02 | 63.60541 | -12.65223 | 36295 ft | 392 kts | 311° |
| 2026-05-09 16:03 | 63.63809 | -12.74949 | 36290 ft | 391 kts | 311° |
| 2026-05-09 16:03 | 63.67087 | -12.84750 | 36290 ft | 391 kts | 311° |
| 2026-05-09 16:04 | 63.70355 | -12.94563 | 36291 ft | 391 kts | 311° |
| 2026-05-09 16:04 | 63.73611 | -13.04381 | 36291 ft | 390 kts | 311° |
| 2026-05-09 16:05 | 63.76846 | -13.14178 | 36300 ft | 391 kts | 310° |
| 2026-05-09 16:05 | 63.80092 | -13.24052 | 36289 ft | 391 kts | 310° |
| 2026-05-09 16:06 | 63.83343 | -13.33984 | 36223 ft | 392 kts | 310° |
| 2026-05-09 16:06 | 63.86578 | -13.43914 | 36271 ft | 391 kts | 310° |
| 2026-05-09 16:07 | 63.89778 | -13.53780 | 36276 ft | 391 kts | 310° |
| 2026-05-09 16:07 | 63.92999 | -13.63752 | 36277 ft | 390 kts | 310° |
| 2026-05-09 16:08 | 63.96209 | -13.73735 | 36279 ft | 390 kts | 310° |
| 2026-05-09 16:08 | 63.99388 | -13.83663 | 36280 ft | 390 kts | 310° |
| 2026-05-09 16:09 | 64.02582 | -13.93684 | 36275 ft | 390 kts | 310° |
| 2026-05-09 16:09 | 64.05756 | -14.03686 | 36274 ft | 390 kts | 310° |
| 2026-05-09 16:10 | 64.08927 | -14.13726 | 36277 ft | 389 kts | 310° |
| 2026-05-09 16:10 | 64.12099 | -14.23811 | 36277 ft | 389 kts | 310° |
| 2026-05-09 16:11 | 64.15253 | -14.33884 | 36275 ft | 389 kts | 310° |
| 2026-05-09 16:11 | 64.18393 | -14.43960 | 36258 ft | 387 kts | 310° |
| 2026-05-09 16:12 | 64.21487 | -14.53933 | 36272 ft | 386 kts | 310° |
| 2026-05-09 16:12 | 64.24591 | -14.63977 | 36287 ft | 385 kts | 309° |
| 2026-05-09 16:13 | 64.27686 | -14.74040 | 36276 ft | 385 kts | 309° |
| 2026-05-09 16:13 | 64.30770 | -14.84113 | 36272 ft | 384 kts | 309° |
| 2026-05-09 16:14 | 64.33847 | -14.94206 | 36273 ft | 384 kts | 309° |
| 2026-05-09 16:14 | 64.36923 | -15.04340 | 36284 ft | 386 kts | 309° |
| 2026-05-09 16:15 | 64.38465 | -15.09437 | 36056 ft | 390 kts | 309° |
| 2026-05-09 16:15 | 64.40005 | -15.14532 | 35587 ft | 387 kts | 309° |
| 2026-05-09 16:15 | 64.41538 | -15.19633 | 34968 ft | 385 kts | 309° |
| 2026-05-09 16:15 | 64.43056 | -15.24700 | 34543 ft | 378 kts | 310° |
| 2026-05-09 16:16 | 64.44570 | -15.29752 | 33556 ft | 383 kts | 310° |
| 2026-05-09 16:16 | 64.46066 | -15.34761 | 33263 ft | 371 kts | 310° |
| 2026-05-09 16:16 | 64.47523 | -15.39654 | 32666 ft | 366 kts | 310° |
| 2026-05-09 16:16 | 64.48957 | -15.44473 | 32272 ft | 360 kts | 309° |
| 2026-05-09 16:17 | 64.50367 | -15.49222 | 31809 ft | 355 kts | 309° |
| 2026-05-09 16:17 | 64.51746 | -15.53875 | 31336 ft | 351 kts | 309° |
| 2026-05-09 16:17 | 64.53118 | -15.58512 | 30928 ft | 345 kts | 310° |
| 2026-05-09 16:17 | 64.54470 | -15.63090 | 30480 ft | 341 kts | 310° |
| 2026-05-09 16:18 | 64.55804 | -15.67616 | 29848 ft | 340 kts | 309° |
| 2026-05-09 16:18 | 64.57137 | -15.72141 | 29301 ft | 336 kts | 309° |
| 2026-05-09 16:18 | 64.58452 | -15.76621 | 28794 ft | 333 kts | 309° |
| 2026-05-09 16:18 | 64.59747 | -15.81040 | 28337 ft | 328 kts | 309° |
| 2026-05-09 16:19 | 64.61008 | -15.85355 | 27910 ft | 324 kts | 309° |
| 2026-05-09 16:19 | 64.62269 | -15.89678 | 27437 ft | 321 kts | 309° |
| 2026-05-09 16:19 | 64.63519 | -15.93970 | 27003 ft | 318 kts | 309° |
| 2026-05-09 16:19 | 64.64755 | -15.98219 | 26565 ft | 315 kts | 308° |
| 2026-05-09 16:20 | 64.65981 | -16.02444 | 26135 ft | 313 kts | 308° |
| 2026-05-09 16:20 | 64.67196 | -16.06640 | 25704 ft | 310 kts | 308° |
| 2026-05-09 16:20 | 64.68399 | -16.10800 | 25276 ft | 308 kts | 308° |
| 2026-05-09 16:20 | 64.69595 | -16.14944 | 24855 ft | 307 kts | 308° |
| 2026-05-09 16:21 | 64.70788 | -16.19086 | 24437 ft | 305 kts | 308° |
| 2026-05-09 16:21 | 64.71971 | -16.23200 | 24010 ft | 304 kts | 307° |
| 2026-05-09 16:21 | 64.73150 | -16.27309 | 23525 ft | 303 kts | 307° |
| 2026-05-09 16:21 | 64.74321 | -16.31396 | 23059 ft | 301 kts | 307° |
| 2026-05-09 16:22 | 64.75468 | -16.35412 | 22646 ft | 299 kts | 307° |
| 2026-05-09 16:22 | 64.76620 | -16.39448 | 22217 ft | 297 kts | 307° |
| 2026-05-09 16:22 | 64.77768 | -16.43479 | 21810 ft | 296 kts | 307° |
| 2026-05-09 16:22 | 64.78910 | -16.47495 | 21362 ft | 295 kts | 306° |
| 2026-05-09 16:23 | 64.80053 | -16.51523 | 20982 ft | 299 kts | 306° |
| 2026-05-09 16:23 | 64.81232 | -16.55675 | 20574 ft | 311 kts | 306° |
| 2026-05-09 16:23 | 64.82443 | -16.59953 | 20139 ft | 314 kts | 306° |
| 2026-05-09 16:23 | 64.83633 | -16.64170 | 19717 ft | 312 kts | 306° |
| 2026-05-09 16:24 | 64.84829 | -16.68421 | 19291 ft | 310 kts | 306° |
| 2026-05-09 16:24 | 64.86014 | -16.72640 | 18868 ft | 308 kts | 306° |
| 2026-05-09 16:24 | 64.87190 | -16.76834 | 18450 ft | 306 kts | 305° |
| 2026-05-09 16:24 | 64.88359 | -16.81011 | 17990 ft | 304 kts | 305° |
| 2026-05-09 16:25 | 64.89518 | -16.85158 | 17558 ft | 302 kts | 305° |
| 2026-05-09 16:25 | 64.90281 | -16.87891 | 17279 ft | 300 kts | 305° |
| 2026-05-09 16:25 | 64.91805 | -16.93362 | 16742 ft | 297 kts | 305° |
| 2026-05-09 16:25 | 64.92932 | -16.97417 | 16352 ft | 294 kts | 305° |
| 2026-05-09 16:26 | 64.94051 | -17.01451 | 15968 ft | 292 kts | 305° |
| 2026-05-09 16:26 | 64.95148 | -17.05411 | 15575 ft | 291 kts | 304° |
| 2026-05-09 16:26 | 64.96255 | -17.09411 | 15212 ft | 289 kts | 304° |
| 2026-05-09 16:26 | 64.97355 | -17.13396 | 14831 ft | 289 kts | 304° |
| 2026-05-09 16:27 | 64.98451 | -17.17373 | 14448 ft | 288 kts | 304° |
| 2026-05-09 16:27 | 64.99528 | -17.21289 | 14072 ft | 287 kts | 304° |
| 2026-05-09 16:27 | 65.00617 | -17.25256 | 13654 ft | 287 kts | 304° |
| 2026-05-09 16:27 | 65.01702 | -17.29214 | 13249 ft | 285 kts | 304° |
| 2026-05-09 16:28 | 65.02779 | -17.33153 | 12873 ft | 283 kts | 304° |
| 2026-05-09 16:28 | 65.03844 | -17.37051 | 12506 ft | 282 kts | 304° |
| 2026-05-09 16:28 | 65.04905 | -17.40943 | 12136 ft | 280 kts | 303° |
| 2026-05-09 16:28 | 65.05957 | -17.44809 | 11778 ft | 279 kts | 303° |
| 2026-05-09 16:29 | 65.07004 | -17.48664 | 11419 ft | 278 kts | 303° |
| 2026-05-09 16:29 | 65.08034 | -17.52460 | 11063 ft | 277 kts | 303° |
| 2026-05-09 16:29 | 65.09071 | -17.56291 | 10726 ft | 276 kts | 303° |
| 2026-05-09 16:29 | 65.10099 | -17.60093 | 10550 ft | 269 kts | 303° |
| 2026-05-09 16:30 | 65.11099 | -17.63800 | 10427 ft | 265 kts | 303° |
| 2026-05-09 16:30 | 65.12087 | -17.67473 | 10315 ft | 262 kts | 303° |
| 2026-05-09 16:30 | 65.13062 | -17.71106 | 10194 ft | 257 kts | 303° |
| 2026-05-09 16:30 | 65.14009 | -17.74632 | 10080 ft | 248 kts | 303° |
| 2026-05-09 16:31 | 65.14925 | -17.78043 | 9904 ft | 242 kts | 303° |
| 2026-05-09 16:31 | 65.15813 | -17.81360 | 9674 ft | 238 kts | 303° |
| 2026-05-09 16:31 | 65.16702 | -17.84679 | 9398 ft | 237 kts | 302° |
| 2026-05-09 16:31 | 65.17586 | -17.87971 | 9128 ft | 234 kts | 302° |
| 2026-05-09 16:32 | 65.18449 | -17.91218 | 8928 ft | 230 kts | 302° |
| 2026-05-09 16:32 | 65.19013 | -17.93346 | 8743 ft | 229 kts | 302° |
| 2026-05-09 16:32 | 65.19864 | -17.96551 | 8488 ft | 228 kts | 302° |
| 2026-05-09 16:32 | 65.21062 | -18.00628 | 8182 ft | 225 kts | 311° |
| 2026-05-09 16:33 | 65.21783 | -18.02455 | 8031 ft | 223 kts | 313° |
| 2026-05-09 16:33 | 65.22873 | -18.05102 | 7796 ft | 225 kts | 313° |
| 2026-05-09 16:33 | 65.23991 | -18.07817 | 7554 ft | 233 kts | 313° |
| 2026-05-09 16:33 | 65.25142 | -18.10626 | 7265 ft | 238 kts | 313° |
| 2026-05-09 16:34 | 65.26268 | -18.13413 | 7024 ft | 235 kts | 312° |
| 2026-05-09 16:34 | 65.27398 | -18.16236 | 6757 ft | 234 kts | 312° |
| 2026-05-09 16:34 | 65.28521 | -18.19051 | 6493 ft | 234 kts | 312° |
| 2026-05-09 16:34 | 65.29644 | -18.21877 | 6239 ft | 234 kts | 312° |
| 2026-05-09 16:35 | 65.30772 | -18.24720 | 5936 ft | 237 kts | 312° |
| 2026-05-09 16:35 | 65.32015 | -18.27271 | 5638 ft | 238 kts | 332° |
| 2026-05-09 16:35 | 65.33607 | -18.28078 | 5538 ft | 233 kts | 358° |
| 2026-05-09 16:35 | 65.35176 | -18.27363 | 5372 ft | 226 kts | 15° |
| 2026-05-09 16:36 | 65.36633 | -18.26155 | 5190 ft | 217 kts | 16° |
| 2026-05-09 16:36 | 65.40664 | -18.22812 | 4718 ft | 199 kts | 16° |
| 2026-05-09 16:37 | 65.41977 | -18.21732 | 4504 ft | 199 kts | 16° |
| 2026-05-09 16:37 | 65.43282 | -18.20660 | 4245 ft | 197 kts | 17° |
| 2026-05-09 16:37 | 65.44560 | -18.19610 | 4007 ft | 195 kts | 17° |
| 2026-05-09 16:37 | 65.45841 | -18.18557 | 3762 ft | 192 kts | 17° |
| 2026-05-09 16:38 | 65.47089 | -18.17530 | 3541 ft | 186 kts | 17° |
| 2026-05-09 16:38 | 65.48308 | -18.16526 | 3338 ft | 183 kts | 17° |
| 2026-05-09 16:38 | 65.49509 | -18.15542 | 3226 ft | 182 kts | 18° |
| 2026-05-09 16:38 | 65.50692 | -18.14442 | 2952 ft | 183 kts | 23° |
| 2026-05-09 16:39 | 65.51850 | -18.13192 | 2679 ft | 182 kts | 24° |
| 2026-05-09 16:39 | 65.52986 | -18.11961 | 2415 ft | 179 kts | 23° |
| 2026-05-09 16:39 | 65.54091 | -18.10768 | 2170 ft | 169 kts | 23° |
| 2026-05-09 16:39 | 65.55132 | -18.09640 | 1938 ft | 160 kts | 23° |
| 2026-05-09 16:40 | 65.56128 | -18.08562 | 1736 ft | 153 kts | 23° |
| 2026-05-09 16:40 | 65.57088 | -18.07568 | 1562 ft | 143 kts | 19° |
| 2026-05-09 16:42 | 65.63799 | -18.06850 | 200 ft | 138 kts | 354° |
| 2026-05-09 16:42 | 65.64718 | -18.07024 | 29 ft | 133 kts | 354° |
| 2026-05-09 16:42 | 65.65538 | -18.07180 | 17 ft | 96 kts | 355° |
| 2026-05-09 16:42 | 65.66100 | -18.07287 | 15 ft | 74 kts | 355° |
| 2026-05-09 16:43 | 65.66566 | -18.07378 | 16 ft | 57 kts | 355° |
| 2026-05-09 16:43 | 65.66779 | -18.07420 | 16 ft | 15 kts | 347° |
| 2026-05-09 16:43 | 65.66852 | -18.07460 | 18 ft | 8 kts | 45° |
| 2026-05-09 16:43 | 65.66815 | -18.07397 | 17 ft | 13 kts | 179° |
| 2026-05-09 16:44 | 65.66648 | -18.07391 | 17 ft | 33 kts | 174° |
| 2026-05-09 16:44 | 65.66413 | -18.07344 | 17 ft | 33 kts | 176° |
| 2026-05-09 16:44 | 65.66185 | -18.07306 | 15 ft | 32 kts | 176° |
| 2026-05-09 16:44 | 65.65967 | -18.07262 | 15 ft | 30 kts | 175° |
| 2026-05-09 16:45 | 65.65763 | -18.07225 | 21 ft | 28 kts | 176° |
| 2026-05-09 16:45 | 65.65571 | -18.07186 | 17 ft | 27 kts | 176° |
| 2026-05-09 16:45 | 65.65480 | -18.07267 | 16 ft | 12 kts | 279° |
| 2026-05-09 16:45 | 65.65476 | -18.07384 | 16 ft | 3 kts | 261° |
| 2026-05-09 16:46 | 65.65461 | -18.07413 | 17 ft | 3 kts | 196° |
| 2026-05-09 16:46 | 65.65443 | -18.07413 | 16 ft | 2 kts | 179° |
| 2026-05-09 16:46 | 65.65431 | -18.07436 | 18 ft | 3 kts | 259° |
| 2026-05-09 16:46 | 65.65440 | -18.07480 | 16 ft | 3 kts | 313° |
| 2026-05-09 16:47 | 65.65445 | -18.07478 | 16 ft | 0 kts | 6° |
| 2026-05-09 16:47 | 65.65448 | -18.07476 | 16 ft | 0 kts | 13° |